Time;durP1;ratioP1;P1;durP2;ratioP2;P2;SDS_P1;SDS_P2;PMS_P1;PMS_P2;Temp;Humidity;BMP_temperature;BMP_pressure;BME280_temperature;BME280_humidity;BME280_pressure;Samples;Min_cycle;Max_cycle;Signal;HPM_P1;HPM_P2
2022/04/10 00:01:29;;;;;;;19.17;2.60;;;2.20;99.90;;;;;;5117462;28;20092;-34
2022/04/10 00:03:56;;;;;;;17.03;3.30;;;2.30;99.90;;;;;;5099140;28;20047;-34
2022/04/10 00:06:23;;;;;;;15.33;2.60;;;2.30;98.50;;;;;;5117329;28;20508;-34
2022/04/10 00:08:49;;;;;;;10.27;1.70;;;2.20;91.90;;;;;;5117300;28;20040;-35
2022/04/10 00:11:15;;;;;;;14.80;3.33;;;2.10;84.50;;;;;;5117816;28;20043;-34
2022/04/10 00:13:41;;;;;;;14.17;2.27;;;2.00;95.60;;;;;;5118172;27;20109;-34
2022/04/10 00:16:08;;;;;;;14.87;2.13;;;2.00;99.90;;;;;;5099037;28;20046;-35
2022/04/10 00:18:39;;;;;;;14.70;2.40;;;1.90;99.90;;;;;;5098889;28;20146;-35
2022/04/10 00:21:05;;;;;;;15.97;3.63;;;1.90;99.90;;;;;;5098782;28;20083;-34
2022/04/10 00:23:32;;;;;;;18.33;2.67;;;1.80;99.90;;;;;;5098702;28;20046;-35
2022/04/10 00:25:57;;;;;;;17.47;2.33;;;1.70;99.90;;;;;;5115820;28;20048;-34
2022/04/10 00:28:23;;;;;;;27.63;3.47;;;1.60;99.90;;;;;;5099754;28;20423;-34
2022/04/10 00:30:49;;;;;;;25.33;3.60;;;2.00;99.90;;;;;;5099066;28;20044;-35
2022/04/10 00:33:15;;;;;;;17.93;2.80;;;2.00;99.90;;;;;;5098643;28;20043;-34
2022/04/10 00:35:41;;;;;;;10.97;2.23;;;2.40;99.90;;;;;;5099580;28;20044;-34
2022/04/10 00:38:07;;;;;;;12.97;2.17;;;2.60;90.90;;;;;;5116430;28;20497;-34
2022/04/10 00:40:32;;;;;;;9.87;2.50;;;2.70;1.00;;;;;;5098515;28;20059;-34
2022/04/10 00:42:58;;;;;;;9.90;1.67;;;2.70;1.00;;;;;;5119647;27;20036;-34
2022/04/10 00:45:24;;;;;;;17.50;2.30;;;2.70;1.00;;;;;;5137165;27;20054;-35
2022/04/10 00:47:50;;;;;;;13.60;1.97;;;2.60;1.00;;;;;;5137745;27;20043;-34
2022/04/10 00:50:17;;;;;;;16.67;3.80;;;2.50;1.00;;;;;;5136591;27;20507;-35
2022/04/10 00:52:45;;;;;;;9.20;1.80;;;2.40;1.00;;;;;;5120083;27;20051;-34
2022/04/10 00:55:12;;;;;;;12.03;2.07;;;2.20;1.00;;;;;;5097994;28;20047;-35
2022/04/10 00:57:38;;;;;;;9.40;1.87;;;2.00;1.00;;;;;;5099216;28;20040;-36
2022/04/10 01:00:08;;;;;;;14.87;2.53;;;1.80;1.00;;;;;;5116032;28;20374;-35
2022/04/10 01:02:34;;;;;;;19.43;2.90;;;1.60;52.20;;;;;;5098205;28;20054;-34
2022/04/10 01:04:59;;;;;;;11.30;1.97;;;1.50;56.00;;;;;;5080710;28;20126;-34
2022/04/10 01:07:28;;;;;;;9.37;3.00;;;1.30;99.90;;;;;;5104268;27;20055;-34
2022/04/10 01:09:55;;;;;;;11.70;2.80;;;1.20;99.90;;;;;;5097734;28;20051;-34
2022/04/10 01:12:22;;;;;;;13.77;1.97;;;1.10;99.90;;;;;;5116060;28;20048;-34
2022/04/10 01:14:48;;;;;;;18.87;3.17;;;0.90;99.90;;;;;;5115502;28;20049;-34
2022/04/10 01:17:14;;;;;;;15.10;2.70;;;0.90;99.90;;;;;;5098077;28;20044;-35
2022/04/10 01:19:41;;;;;;;14.50;2.33;;;0.80;99.90;;;;;;5115919;28;20051;-34
2022/04/10 01:22:08;;;;;;;14.70;4.37;;;0.70;99.90;;;;;;5116734;27;20086;-34
2022/04/10 01:24:39;;;;;;;13.60;2.47;;;0.60;99.90;;;;;;5115778;28;20078;-33
2022/04/10 01:27:05;;;;;;;13.07;2.87;;;0.50;99.90;;;;;;5116674;28;20055;-35
2022/04/10 01:29:31;;;;;;;19.27;2.40;;;0.40;99.90;;;;;;5098083;28;20052;-34
2022/04/10 01:31:58;;;;;;;23.50;3.43;;;0.20;99.90;;;;;;5115762;28;20051;-34
2022/04/10 01:34:24;;;;;;;16.37;2.50;;;0.20;99.90;;;;;;5115576;28;20107;-34
2022/04/10 01:36:49;;;;;;;14.57;3.20;;;0.10;99.90;;;;;;5116418;27;20040;-34
2022/04/10 01:39:15;;;;;;;17.83;2.57;;;0.00;99.90;;;;;;5115533;28;20507;-34
2022/04/10 01:41:42;;;;;;;14.50;3.30;;;0.00;1.00;;;;;;5115537;28;20043;-34
2022/04/10 01:44:09;;;;;;;14.83;2.43;;;0.00;1.00;;;;;;5103584;27;20110;-33
2022/04/10 01:46:36;;;;;;;17.73;3.33;;;-0.10;1.00;;;;;;5135963;27;20507;-34
2022/04/10 01:49:03;;;;;;;14.80;2.47;;;-0.10;1.00;;;;;;5135992;27;20046;-34
2022/04/10 01:51:28;;;;;;;23.27;3.30;;;-0.10;1.00;;;;;;5134245;27;20080;-34
2022/04/10 01:53:54;;;;;;;18.33;3.40;;;-0.10;1.00;;;;;;5135812;27;20051;-34
2022/04/10 01:56:21;;;;;;;17.13;3.17;;;0.00;37.90;;;;;;5117656;27;20051;-34
2022/04/10 01:58:48;;;;;;;18.70;2.83;;;0.10;99.90;;;;;;5135730;27;20047;-34
2022/04/10 02:01:15;;;;;;;14.57;2.63;;;0.00;99.90;;;;;;5135947;27;20090;-33
2022/04/10 02:03:42;;;;;;;29.73;4.27;;;0.10;99.90;;;;;;5117335;27;20134;-33
2022/04/10 02:06:10;;;;;;;16.50;3.47;;;-0.20;99.90;;;;;;5096580;28;20047;-35
2022/04/10 02:08:36;;;;;;;17.83;3.17;;;0.00;99.90;;;;;;5115268;28;20051;-34
2022/04/10 02:11:10;;;;;;;17.23;3.43;;;-0.30;99.90;;;;;;5114907;28;20090;-34
2022/04/10 02:13:36;;;;;;;18.37;2.50;;;-0.30;99.90;;;;;;5115156;28;20450;-34
2022/04/10 02:16:01;;;;;;;14.43;2.57;;;-0.20;90.60;;;;;;5114241;28;20138;-34
2022/04/10 02:18:27;;;;;;;17.77;2.53;;;-0.10;49.70;;;;;;5114812;28;20144;-34
2022/04/10 02:20:53;;;;;;;15.37;2.53;;;-0.20;41.50;;;;;;5127095;27;20046;-34
2022/04/10 02:23:18;;;;;;;12.83;2.03;;;-0.10;26.20;;;;;;5135202;27;20468;-33
2022/04/10 02:25:44;;;;;;;18.73;2.47;;;0.00;90.80;;;;;;5117082;27;20472;-34
2022/04/10 02:28:10;;;;;;;7.70;2.53;;;0.10;99.90;;;;;;5117065;27;20057;-34
2022/04/10 02:30:36;;;;;;;14.90;4.10;;;0.10;99.90;;;;;;5135687;27;20048;-34
2022/04/10 02:33:01;;;;;;;10.20;1.87;;;0.00;95.50;;;;;;5135093;27;20043;-34
2022/04/10 02:35:27;;;;;;;8.27;1.70;;;-0.20;52.80;;;;;;5119916;27;20050;-34
2022/04/10 02:37:53;;;;;;;10.60;1.67;;;-0.30;7.80;;;;;;5115632;27;20388;-34
2022/04/10 02:40:18;;;;;;;10.70;1.97;;;-0.20;8.00;;;;;;5096405;28;20055;-34
2022/04/10 02:42:44;;;;;;;15.17;2.40;;;-0.10;99.90;;;;;;5080236;28;20081;-34
2022/04/10 02:45:11;;;;;;;11.73;1.80;;;0.10;99.90;;;;;;5114380;28;20059;-35
2022/04/10 02:47:37;;;;;;;13.50;1.73;;;1.00;99.90;;;;;;5114333;28;20051;-34
2022/04/10 02:50:05;;;;;;;5.17;2.27;;;0.70;99.90;;;;;;5097469;27;20161;-34
2022/04/10 02:52:31;;;;;;;9.73;1.67;;;0.90;99.90;;;;;;5114351;28;20556;-35
2022/04/10 02:54:57;;;;;;;13.27;2.17;;;1.10;99.90;;;;;;5114259;28;20130;-34
2022/04/10 02:57:22;;;;;;;11.63;2.20;;;1.10;99.90;;;;;;5115023;28;20058;-34
2022/04/10 02:59:48;;;;;;;20.87;1.97;;;1.20;99.90;;;;;;5114447;28;20500;-34
2022/04/10 03:02:14;;;;;;;16.30;2.30;;;1.10;99.90;;;;;;5100070;28;20089;-34
2022/04/10 03:04:39;;;;;;;5.60;1.10;;;1.10;99.90;;;;;;5114916;28;20122;-33
2022/04/10 03:07:05;;;;;;;10.83;2.07;;;1.00;99.90;;;;;;5115173;28;20397;-34
2022/04/10 03:09:31;;;;;;;7.87;1.10;;;0.90;99.90;;;;;;5114390;28;20106;-35
2022/04/10 03:11:57;;;;;;;12.57;1.83;;;0.80;99.90;;;;;;5114619;28;20082;-35
2022/04/10 03:14:22;;;;;;;9.03;0.83;;;1.00;99.90;;;;;;5096645;28;20058;-35
2022/04/10 03:16:48;;;;;;;8.23;1.70;;;0.80;99.90;;;;;;5120077;28;20532;-35
2022/04/10 03:19:14;;;;;;;6.63;1.20;;;1.00;99.90;;;;;;5114008;28;20050;-35
2022/04/10 03:21:39;;;;;;;9.27;1.10;;;1.00;99.90;;;;;;5111330;28;20446;-35
2022/04/10 03:24:06;;;;;;;9.27;2.37;;;1.10;99.90;;;;;;5116590;28;20088;-34
2022/04/10 03:26:31;;;;;;;5.43;1.07;;;1.30;99.90;;;;;;5134768;27;20086;-35
2022/04/10 03:28:57;;;;;;;9.10;2.00;;;1.30;99.90;;;;;;5120820;27;20476;-35
2022/04/10 03:31:23;;;;;;;8.77;1.40;;;1.40;92.50;;;;;;5137310;27;20108;-34
2022/04/10 03:33:50;;;;;;;6.73;1.07;;;1.50;29.30;;;;;;5120238;27;20092;-35
2022/04/10 03:36:16;;;;;;;5.57;0.90;;;1.60;1.00;;;;;;5138528;27;20043;-34
2022/04/10 03:38:42;;;;;;;5.37;0.90;;;1.70;1.00;;;;;;5120187;27;20043;-34
2022/04/10 03:41:08;;;;;;;14.27;1.77;;;1.70;1.00;;;;;;5139297;27;20361;-34
2022/04/10 03:43:34;;;;;;;7.47;1.23;;;1.80;1.00;;;;;;5120041;27;20108;-35
2022/04/10 03:46:00;;;;;;;7.70;1.70;;;1.70;1.00;;;;;;5138607;27;20058;-34
2022/04/10 03:48:26;;;;;;;8.77;1.33;;;1.70;1.00;;;;;;5123476;27;20047;-36
2022/04/10 03:50:52;;;;;;;7.83;0.63;;;1.80;1.00;;;;;;5117986;28;20126;-34
2022/04/10 03:53:18;;;;;;;4.50;0.90;;;1.90;99.90;;;;;;5118232;28;20098;-34
2022/04/10 03:55:44;;;;;;;7.10;1.43;;;2.00;99.90;;;;;;5117597;28;20516;-35
2022/04/10 03:58:10;;;;;;;6.10;1.30;;;2.10;99.90;;;;;;5117572;28;20039;-35
2022/04/10 04:00:35;;;;;;;5.77;1.00;;;2.00;99.90;;;;;;5117519;28;20044;-34
2022/04/10 04:03:01;;;;;;;5.03;0.43;;;1.90;99.90;;;;;;5118494;27;20043;-35
2022/04/10 04:05:27;;;;;;;6.77;0.73;;;1.80;99.90;;;;;;5117384;28;20054;-36
2022/04/10 04:07:54;;;;;;;4.33;1.00;;;1.70;99.90;;;;;;5082326;28;20126;-35
2022/04/10 04:10:19;;;;;;;9.77;1.40;;;1.60;99.90;;;;;;5117020;28;20096;-34
2022/04/10 04:12:45;;;;;;;7.13;0.93;;;1.60;99.90;;;;;;5117115;28;20052;-34
2022/04/10 04:15:11;;;;;;;8.17;1.20;;;1.50;99.90;;;;;;5117811;28;20130;-34
2022/04/10 04:17:37;;;;;;;5.93;1.20;;;1.40;1.00;;;;;;5117915;27;20048;-34
2022/04/10 04:20:07;;;;;;;5.70;1.07;;;1.40;1.00;;;;;;5117078;28;20077;-34
2022/04/10 04:22:37;;;;;;;10.00;1.63;;;1.30;1.00;;;;;;5117008;28;20042;-34
2022/04/10 04:25:06;;;;;;;14.27;1.77;;;1.30;1.00;;;;;;5112035;27;20058;-34
2022/04/10 04:27:32;;;;;;;10.63;1.77;;;1.10;1.00;;;;;;5119150;27;20568;-35
2022/04/10 04:29:59;;;;;;;4.30;0.90;;;1.00;1.00;;;;;;5117353;27;20118;-34
2022/04/10 04:32:25;;;;;;;10.27;1.10;;;0.80;1.00;;;;;;5137440;27;20043;-34
2022/04/10 04:34:50;;;;;;;18.00;1.70;;;0.70;9.40;;;;;;5137300;27;20039;-34
2022/04/10 04:37:16;;;;;;;11.90;1.87;;;0.60;40.30;;;;;;5137049;27;20050;-35
2022/04/10 04:39:42;;;;;;;13.90;1.70;;;0.60;99.90;;;;;;5118080;27;20087;-34
2022/04/10 04:42:08;;;;;;;11.37;2.07;;;0.50;99.90;;;;;;5137326;27;20126;-34
2022/04/10 04:44:34;;;;;;;6.20;1.30;;;0.40;99.90;;;;;;5118830;27;20080;-33
2022/04/10 04:47:00;;;;;;;13.33;2.00;;;0.30;99.90;;;;;;5118905;27;20079;-34
2022/04/10 04:49:26;;;;;;;5.80;1.13;;;0.30;99.90;;;;;;5137089;27;20047;-34
2022/04/10 04:51:52;;;;;;;13.27;2.47;;;0.10;99.90;;;;;;5101696;27;20054;-34
2022/04/10 04:54:18;;;;;;;7.43;1.50;;;0.10;99.90;;;;;;5137015;27;20043;-35
2022/04/10 04:56:43;;;;;;;5.67;1.50;;;0.10;99.90;;;;;;5119195;27;20047;-34
2022/04/10 04:59:09;;;;;;;14.70;2.00;;;0.10;99.90;;;;;;5119369;27;20132;-34
2022/04/10 05:01:35;;;;;;;8.60;1.60;;;0.20;99.90;;;;;;5137423;27;20376;-34
2022/04/10 05:04:01;;;;;;;7.47;1.50;;;0.10;99.90;;;;;;5136432;27;20043;-35
2022/04/10 05:06:27;;;;;;;12.53;1.63;;;0.10;99.90;;;;;;5118788;27;20039;-34
2022/04/10 05:08:53;;;;;;;11.20;2.50;;;0.10;99.90;;;;;;5137279;27;20055;-34
2022/04/10 05:11:19;;;;;;;13.67;1.60;;;0.20;99.90;;;;;;5119047;27;20043;-34
2022/04/10 05:13:45;;;;;;;5.90;1.40;;;0.30;99.90;;;;;;5136281;27;20039;-34
2022/04/10 05:16:11;;;;;;;11.50;1.20;;;0.10;99.90;;;;;;5136643;27;20046;-35
2022/04/10 05:18:36;;;;;;;8.47;1.33;;;0.10;99.90;;;;;;5137063;27;20043;-34
2022/04/10 05:21:03;;;;;;;17.43;1.63;;;0.20;99.90;;;;;;5118186;27;20445;-34
2022/04/10 05:23:30;;;;;;;12.00;1.73;;;0.20;99.90;;;;;;5118519;27;20039;-35
2022/04/10 05:25:55;;;;;;;10.73;1.93;;;0.30;99.90;;;;;;5136415;27;20049;-35
2022/04/10 05:28:22;;;;;;;9.47;1.80;;;0.30;99.90;;;;;;5118509;27;20043;-34
2022/04/10 05:30:47;;;;;;;12.23;1.33;;;0.50;1.00;;;;;;5118745;27;20107;-34
2022/04/10 05:33:13;;;;;;;8.43;1.43;;;0.70;1.00;;;;;;5136231;27;20043;-34
2022/04/10 05:35:39;;;;;;;6.40;1.27;;;0.80;1.00;;;;;;5136101;27;20068;-34
2022/04/10 05:38:05;;;;;;;10.43;1.50;;;0.90;1.00;;;;;;5136131;27;20047;-34
2022/04/10 05:40:32;;;;;;;11.30;1.50;;;0.90;1.00;;;;;;5118326;27;20047;-35
2022/04/10 05:42:58;;;;;;;13.83;1.77;;;0.90;1.00;;;;;;5135978;27;20183;-34
2022/04/10 05:45:23;;;;;;;11.40;2.60;;;0.90;1.00;;;;;;5117767;27;20126;-34
2022/04/10 05:47:49;;;;;;;12.37;2.67;;;1.00;1.00;;;;;;5135920;27;20047;-35
2022/04/10 05:50:16;;;;;;;10.27;2.27;;;1.00;1.00;;;;;;5117947;27;20477;-35
2022/04/10 05:52:47;;;;;;;9.57;1.40;;;1.10;1.00;;;;;;5135857;27;20435;-35
2022/04/10 05:55:15;;;;;;;12.77;2.90;;;1.20;1.00;;;;;;5136447;27;20382;-35
2022/04/10 05:57:41;;;;;;;10.13;1.83;;;1.40;1.00;;;;;;5135961;27;20514;-36
2022/04/10 06:00:13;;;;;;;10.03;1.83;;;1.50;1.00;;;;;;5100610;27;20480;-34
2022/04/10 06:02:39;;;;;;;9.50;1.77;;;1.60;1.00;;;;;;5117344;27;20079;-36
2022/04/10 06:05:05;;;;;;;13.07;2.03;;;1.60;1.00;;;;;;5135664;27;20071;-36
2022/04/10 06:07:31;;;;;;;13.27;1.37;;;1.70;1.00;;;;;;5117468;27;20051;-35
2022/04/10 06:09:58;;;;;;;12.07;2.40;;;1.80;1.00;;;;;;5135518;27;20049;-35
2022/04/10 06:12:24;;;;;;;11.50;1.57;;;1.90;1.00;;;;;;5135520;27;20047;-35
2022/04/10 06:14:50;;;;;;;10.70;1.60;;;2.10;1.00;;;;;;5134922;27;20061;-36
2022/04/10 06:17:16;;;;;;;11.63;1.37;;;2.20;1.00;;;;;;5083940;27;20427;-35
2022/04/10 06:19:42;;;;;;;9.75;1.35;;;2.20;1.00;;;;;;5100040;27;20047;-35
2022/04/10 06:22:08;;;;;;;9.75;1.38;;;2.30;1.00;;;;;;5135846;27;20039;-35
2022/04/10 06:24:37;;;;;;;15.98;1.75;;;2.60;1.00;;;;;;5135184;27;20039;-35
2022/04/10 06:27:03;;;;;;;9.10;1.53;;;2.40;99.90;;;;;;5117295;27;20046;-32
2022/04/10 06:29:29;;;;;;;8.50;1.95;;;2.30;99.90;;;;;;5135122;27;20078;-29
2022/04/10 06:31:56;;;;;;;13.00;2.07;;;2.10;99.90;;;;;;5135161;27;20090;-29
2022/04/10 06:34:21;;;;;;;7.30;1.70;;;2.10;99.90;;;;;;5116696;27;20476;-29
2022/04/10 06:36:48;;;;;;;16.37;2.43;;;2.00;99.90;;;;;;5135061;27;20126;-29
2022/04/10 06:39:16;;;;;;;10.55;2.28;;;2.20;99.90;;;;;;5099838;27;20504;-29
2022/04/10 06:41:43;;;;;;;15.07;3.35;;;2.40;1.00;;;;;;5134906;27;20047;-29
2022/04/10 06:44:09;;;;;;;12.32;2.22;;;2.50;1.00;;;;;;5134855;27;20039;-29
2022/04/10 06:46:35;;;;;;;10.48;2.58;;;2.70;1.00;;;;;;5135220;27;20502;-30
2022/04/10 06:49:01;;;;;;;11.60;2.10;;;3.00;1.00;;;;;;5134857;27;20047;-28
2022/04/10 06:51:27;;;;;;;9.70;2.00;;;3.10;99.90;;;;;;5134846;27;20126;-29
2022/04/10 06:53:52;;;;;;;16.10;3.25;;;3.30;99.90;;;;;;5135383;27;20039;-29
2022/04/10 06:56:18;;;;;;;13.25;1.90;;;3.50;99.90;;;;;;5116579;27;20043;-29
2022/04/10 06:58:44;;;;;;;8.85;1.45;;;3.60;99.90;;;;;;5099633;28;20047;-29
2022/04/10 07:01:10;;;;;;;7.78;1.58;;;3.80;88.30;;;;;;5135200;27;20035;-29
2022/04/10 07:03:36;;;;;;;9.43;1.58;;;4.10;1.00;;;;;;5134298;27;20047;-30
2022/04/10 07:06:02;;;;;;;8.55;1.30;;;4.40;1.00;;;;;;5134437;27;20095;-29
2022/04/10 07:08:27;;;;;;;8.55;1.85;;;4.50;99.90;;;;;;5134605;28;20083;-29
2022/04/10 07:10:53;;;;;;;7.80;1.23;;;4.70;1.00;;;;;;5116345;28;20046;-29
2022/04/10 07:13:21;;;;;;;10.90;2.55;;;4.90;80.70;;;;;;5134439;28;20043;-30
2022/04/10 07:15:49;;;;;;;10.25;1.45;;;5.00;64.00;;;;;;5134811;28;20051;-29
2022/04/10 07:18:15;;;;;;;8.32;1.50;;;5.10;93.30;;;;;;5135070;28;20472;-29
2022/04/10 07:20:41;;;;;;;8.63;1.42;;;5.00;99.90;;;;;;5134452;28;20054;-29
2022/04/10 07:25:52;;;;;;;8.82;1.38;;;4.80;99.90;;;;;;5119519;28;20050;-30
2022/04/10 07:28:18;;;;;;;10.93;1.57;;;4.90;1.00;;;;;;5134445;28;20082;-29
2022/04/10 07:30:44;;;;;;;7.20;1.50;;;5.00;99.90;;;;;;5116111;28;20047;-29
2022/04/10 07:33:10;;;;;;;10.93;3.38;;;5.10;1.00;;;;;;5134983;28;20049;-30
2022/04/10 07:35:36;;;;;;;13.73;2.13;;;5.20;1.00;;;;;;5134730;28;20043;-29
2022/04/10 07:38:03;;;;;;;8.13;1.75;;;5.20;99.90;;;;;;5134605;28;20133;-29
2022/04/10 07:40:29;;;;;;;17.25;2.20;;;5.30;99.90;;;;;;5116098;28;20445;-29
2022/04/10 07:42:56;;;;;;;14.25;2.65;;;5.50;99.90;;;;;;5134454;28;20061;-30
2022/04/10 07:48:07;;;;;;;8.20;1.55;;;5.60;97.30;;;;;;5118462;28;20108;-29
2022/04/10 07:50:32;;;;;;;14.20;2.03;;;5.80;70.00;;;;;;5115791;28;20043;-30
2022/04/10 07:52:58;;;;;;;12.38;1.65;;;5.80;41.60;;;;;;5134206;28;20042;-29
2022/04/10 07:55:26;;;;;;;11.10;1.85;;;5.90;1.00;;;;;;5116607;28;20051;-29
2022/04/10 07:57:52;;;;;;;9.57;1.80;;;6.00;46.40;;;;;;5134667;28;20043;-30
2022/04/10 08:00:18;;;;;;;13.77;2.45;;;6.20;99.90;;;;;;5133875;28;20111;-30
2022/04/10 08:02:48;;;;;;;14.38;2.15;;;6.30;72.40;;;;;;5116020;28;20043;-29
2022/04/10 08:05:16;;;;;;;13.70;2.40;;;6.40;88.60;;;;;;5134396;28;20453;-29
2022/04/10 08:07:44;;;;;;;13.80;2.08;;;6.40;44.80;;;;;;5134633;28;20047;-30
2022/04/10 08:10:12;;;;;;;16.02;2.15;;;6.40;1.00;;;;;;5134088;28;20392;-30
2022/04/10 08:12:42;;;;;;;8.75;1.83;;;6.50;1.00;;;;;;5115419;28;20043;-31
2022/04/10 08:15:08;;;;;;;8.35;2.22;;;6.80;63.60;;;;;;5136505;27;20100;-30
2022/04/10 08:17:34;;;;;;;8.38;2.10;;;6.90;1.00;;;;;;5119604;27;20405;-32
2022/04/10 08:20:04;;;;;;;9.23;1.60;;;6.70;1.00;;;;;;5119829;27;20046;-31
2022/04/10 08:22:30;;;;;;;11.57;2.53;;;6.70;1.00;;;;;;5137648;27;20100;-32
2022/04/10 08:25:03;;;;;;;12.85;1.88;;;7.00;1.00;;;;;;5119330;27;20122;-32
2022/04/10 08:27:29;;;;;;;;;;;7.10;1.00;;;;;;5138305;27;20112;-32
2022/04/10 08:29:56;;;;;;;9.60;1.83;;;6.90;1.00;;;;;;5138016;27;19967;-32
2022/04/10 08:32:22;;;;;;;11.40;2.47;;;6.90;1.00;;;;;;5118987;27;20058;-32
2022/04/10 08:34:47;;;;;;;13.18;1.85;;;6.70;1.00;;;;;;5102177;27;20043;-32
2022/04/10 08:37:13;;;;;;;15.77;2.33;;;6.70;1.00;;;;;;5119509;27;20468;-32
2022/04/10 08:39:39;;;;;;;12.57;2.08;;;6.80;1.00;;;;;;5137301;27;20046;-33
2022/04/10 08:42:06;;;;;;;11.50;2.05;;;6.90;1.00;;;;;;5137544;27;20043;-32
2022/04/10 08:44:33;;;;;;;9.93;1.77;;;6.90;1.00;;;;;;5137074;27;20090;-32
2022/04/10 08:47:00;;;;;;;13.90;2.00;;;6.90;1.00;;;;;;5137450;27;20055;-32
2022/04/10 08:49:29;;;;;;;9.98;1.85;;;6.70;1.00;;;;;;5137158;27;20043;-33
2022/04/10 08:51:56;;;;;;;10.20;1.40;;;6.70;1.00;;;;;;5137535;27;20082;-33
2022/04/10 08:54:23;;;;;;;7.55;1.48;;;6.90;1.00;;;;;;5118708;27;20036;-33
2022/04/10 08:56:50;;;;;;;9.02;1.25;;;6.80;1.00;;;;;;5118863;27;20107;-33
2022/04/10 08:59:20;;;;;;;4.88;0.93;;;7.00;1.00;;;;;;5136979;27;20544;-34
2022/04/10 09:01:50;;;;;;;5.40;0.80;;;7.00;1.00;;;;;;5136814;27;20050;-33
2022/04/10 09:04:16;;;;;;;8.45;1.27;;;7.10;1.00;;;;;;5119288;27;20045;-35
2022/04/10 09:07:07;;;;;;;8.50;1.48;;;7.10;1.00;;;;;;5137317;27;20431;-34
2022/04/10 09:09:34;;;;;;;10.82;2.22;;;7.40;1.00;;;;;;5136853;27;20100;-34
2022/04/10 09:12:00;;;;;;;10.38;1.40;;;7.80;1.00;;;;;;5136685;27;20045;-34
2022/04/10 09:14:35;;;;;;;12.07;2.17;;;8.20;99.90;;;;;;5136359;27;20070;-35
2022/04/10 09:17:15;;;;;;;7.18;1.92;;;8.20;99.90;;;;;;5119342;27;20459;-34
2022/04/10 09:19:45;;;;;;;9.02;1.63;;;8.50;1.00;;;;;;5118252;27;20122;-34
2022/04/10 09:22:29;;;;;;;10.35;2.03;;;8.60;1.00;;;;;;5137602;27;20071;-35
2022/04/10 09:25:13;;;;;;;8.93;1.60;;;8.80;1.00;;;;;;5118154;27;20035;-34
2022/04/10 09:27:43;;;;;;;12.18;2.13;;;8.80;99.90;;;;;;5118263;27;20086;-36
2022/04/10 09:30:11;;;;;;;14.88;2.28;;;9.20;99.90;;;;;;5136262;27;20126;-34
2022/04/10 09:32:39;;;;;;;11.23;2.28;;;9.30;99.90;;;;;;5136287;27;20039;-34
2022/04/10 09:35:05;;;;;;;9.80;1.65;;;9.30;1.00;;;;;;5136110;27;20129;-34
2022/04/10 09:37:40;;;;;;;9.07;1.77;;;9.30;1.00;;;;;;5118470;27;20440;-34
2022/04/10 09:40:28;;;;;;;8.98;2.00;;;9.20;99.90;;;;;;5102810;27;20049;-34
2022/04/10 09:43:04;;;;;;;6.53;1.45;;;8.70;99.90;;;;;;5136020;27;20519;-35
2022/04/10 09:45:40;;;;;;;8.98;1.08;;;8.90;1.00;;;;;;5118448;27;20053;-34
2022/04/10 09:48:38;;;;;;;11.10;2.00;;;8.50;99.90;;;;;;5136806;27;20439;-34
2022/04/10 09:51:05;;;;;;;7.10;1.95;;;7.70;1.00;;;;;;5073870;27;20082;-34
2022/04/10 09:53:32;;;;;;;11.55;1.50;;;7.40;1.00;;;;;;5135914;27;20123;-34
2022/04/10 09:56:00;;;;;;;10.80;3.08;;;7.90;1.00;;;;;;5117669;27;20140;-33
2022/04/10 09:58:26;;;;;;;9.40;1.75;;;8.40;1.00;;;;;;5118458;27;20046;-35
2022/04/10 10:00:56;;;;;;;12.35;2.00;;;8.90;1.00;;;;;;5135690;27;20082;-35
2022/04/10 10:03:28;;;;;;;12.38;3.20;;;9.30;1.00;;;;;;5117696;27;20039;-34
2022/04/10 10:05:55;;;;;;;11.93;2.05;;;8.90;99.90;;;;;;5135634;27;20047;-34
2022/04/10 10:08:22;;;;;;;10.50;1.65;;;8.60;1.00;;;;;;5117449;27;20096;-34
2022/04/10 10:10:49;;;;;;;10.50;1.92;;;8.80;99.90;;;;;;5136038;27;20047;-34
2022/04/10 10:13:15;;;;;;;13.10;1.90;;;9.00;1.00;;;;;;5135503;27;20051;-35
2022/04/10 10:15:43;;;;;;;10.15;1.60;;;9.20;99.90;;;;;;5135374;27;20051;-36
2022/04/10 10:18:11;;;;;;;10.45;1.50;;;9.60;99.90;;;;;;5135376;27;20051;-34
2022/04/10 10:20:38;;;;;;;9.80;1.98;;;9.20;1.00;;;;;;5135366;27;20122;-36
2022/04/10 10:23:08;;;;;;;8.23;1.55;;;9.40;99.90;;;;;;5135221;27;20042;-34
2022/04/10 10:25:45;;;;;;;9.68;2.03;;;9.30;1.00;;;;;;5117036;27;20047;-34
2022/04/10 10:28:14;;;;;;;12.85;2.53;;;8.70;99.90;;;;;;5100532;27;20051;-36
2022/04/10 10:30:58;;;;;;;10.95;1.77;;;9.00;1.00;;;;;;5135066;27;20382;-35
2022/04/10 10:33:26;;;;;;;7.07;1.20;;;9.40;99.90;;;;;;5117548;27;20054;-35
2022/04/10 10:35:56;;;;;;;10.82;1.85;;;9.90;99.90;;;;;;5134623;27;20481;-34
2022/04/10 10:38:26;;;;;;;10.05;1.60;;;9.70;99.90;;;;;;5099508;27;20047;-34
2022/04/10 10:41:16;;;;;;;8.48;1.40;;;9.60;99.90;;;;;;5135124;27;20043;-35
2022/04/10 10:43:42;;;;;;;7.97;1.58;;;9.90;99.90;;;;;;5116516;27;20477;-35
2022/04/10 10:46:21;;;;;;;7.80;1.60;;;9.70;99.90;;;;;;5134852;27;20126;-35
2022/04/10 10:48:50;;;;;;;7.13;1.20;;;9.60;99.90;;;;;;5134882;27;20051;-36
2022/04/10 10:51:16;;;;;;;6.32;1.10;;;9.80;99.90;;;;;;5134859;27;20197;-35
2022/04/10 10:53:57;;;;;;;6.88;0.90;;;9.60;99.90;;;;;;5134728;27;20144;-34
2022/04/10 10:56:30;;;;;;;6.78;1.33;;;8.80;99.90;;;;;;5116418;27;20058;-34
2022/04/10 10:59:18;;;;;;;7.30;1.45;;;9.30;99.90;;;;;;5134814;27;20471;-35
2022/04/10 11:02:04;;;;;;;13.15;1.88;;;9.30;99.90;;;;;;5134674;27;20135;-34
2022/04/10 11:04:45;;;;;;;5.25;1.08;;;9.40;99.90;;;;;;5099637;28;20054;-34
2022/04/10 11:07:19;;;;;;;9.07;1.60;;;9.40;99.90;;;;;;5134574;27;20476;-35
2022/04/10 11:10:09;;;;;;;10.93;2.17;;;9.70;99.90;;;;;;5134913;28;20054;-37
2022/04/10 11:12:37;;;;;;;7.50;1.65;;;10.30;99.90;;;;;;5116678;28;20472;-35
2022/04/10 11:15:23;;;;;;;9.07;1.17;;;10.10;99.90;;;;;;5134420;28;20055;-34
2022/04/10 11:17:51;;;;;;;7.10;0.80;;;9.20;99.90;;;;;;5134633;28;20047;-34
2022/04/10 11:20:22;;;;;;;8.43;1.48;;;9.20;99.90;;;;;;5116120;28;20043;-34
2022/04/10 11:22:53;;;;;;;9.10;1.70;;;9.90;99.90;;;;;;5135067;28;20039;-34
2022/04/10 11:25:48;;;;;;;6.78;1.35;;;10.30;99.90;;;;;;5134516;28;20047;-35
2022/04/10 11:28:13;;;;;;;10.57;1.20;;;10.30;99.90;;;;;;5134531;28;20044;-35
2022/04/10 11:30:45;;;;;;;9.48;1.38;;;10.30;99.90;;;;;;5134043;28;20049;-34
2022/04/10 11:33:13;;;;;;;6.03;1.10;;;10.80;99.90;;;;;;5116153;28;20054;-35
2022/04/10 11:35:41;;;;;;;8.00;1.38;;;10.80;99.90;;;;;;5134572;28;20043;-34
2022/04/10 11:38:13;;;;;;;7.25;1.60;;;10.60;99.90;;;;;;5134609;28;20046;-34
2022/04/10 11:40:51;;;;;;;7.38;1.33;;;10.90;99.90;;;;;;5134713;28;20051;-34
2022/04/10 11:43:21;;;;;;;6.40;1.20;;;10.20;99.90;;;;;;5116414;28;20043;-34
2022/04/10 11:45:48;;;;;;;4.28;1.05;;;9.70;99.90;;;;;;5116552;28;20046;-35
2022/04/10 11:48:14;;;;;;;7.25;1.45;;;9.70;99.90;;;;;;5117198;27;20047;-35
2022/04/10 11:50:40;;;;;;;8.27;1.42;;;10.30;99.90;;;;;;5102193;27;20140;-34
2022/04/10 11:53:13;;;;;;;5.35;0.98;;;10.50;99.90;;;;;;5138426;27;20491;-34
2022/04/10 11:55:41;;;;;;;11.63;1.95;;;10.40;99.90;;;;;;5139062;27;20047;-35
2022/04/10 11:58:21;;;;;;;8.73;1.70;;;10.50;99.90;;;;;;5138635;27;20476;-34
2022/04/10 12:00:51;;;;;;;9.05;1.30;;;10.00;99.90;;;;;;5138197;27;20107;-34
2022/04/10 12:03:18;;;;;;;7.47;1.27;;;10.10;99.90;;;;;;5137953;27;20039;-35
2022/04/10 12:05:44;;;;;;;10.40;1.55;;;9.90;99.90;;;;;;5119601;27;20051;-35
2022/04/10 12:08:10;;;;;;;8.02;1.42;;;9.40;99.90;;;;;;5137937;27;20083;-34
2022/04/10 12:10:36;;;;;;;7.85;1.40;;;9.50;99.90;;;;;;5119689;27;20419;-35
2022/04/10 12:13:03;;;;;;;5.38;1.10;;;10.00;1.00;;;;;;5119302;27;20045;-34
2022/04/10 12:15:30;;;;;;;4.82;1.00;;;10.40;99.90;;;;;;5120620;27;20092;-34
2022/04/10 12:18:07;;;;;;;8.43;1.83;;;10.60;99.90;;;;;;5137777;27;20105;-34
2022/04/10 12:20:34;;;;;;;6.78;1.20;;;10.30;99.90;;;;;;5119087;27;20059;-35
2022/04/10 12:23:00;;;;;;;6.38;1.20;;;10.10;99.90;;;;;;5137250;27;20093;-35
2022/04/10 12:25:27;;;;;;;7.82;1.48;;;10.50;99.90;;;;;;5085360;27;20079;-34
2022/04/10 12:27:53;;;;;;;6.50;1.10;;;10.70;99.90;;;;;;5137567;27;20119;-34
2022/04/10 12:30:21;;;;;;;6.60;0.93;;;10.70;99.90;;;;;;5119079;27;20374;-37
2022/04/10 12:32:47;;;;;;;4.68;0.75;;;10.80;99.90;;;;;;5137507;27;20054;-34
2022/04/10 12:35:13;;;;;;;5.82;0.65;;;10.90;99.90;;;;;;5118730;27;20086;-34
2022/04/10 12:38:01;;;;;;;5.45;1.00;;;10.90;99.90;;;;;;5137379;27;20039;-34
2022/04/10 12:40:29;;;;;;;4.32;0.68;;;11.00;99.90;;;;;;5119413;27;20361;-34
2022/04/10 12:43:03;;;;;;;6.60;1.00;;;11.10;99.90;;;;;;5120004;27;20086;-35
2022/04/10 12:45:31;;;;;;;4.93;0.90;;;10.90;99.90;;;;;;5137487;27;20047;-35
2022/04/10 12:47:57;;;;;;;4.43;0.80;;;10.60;99.90;;;;;;5138016;27;20069;-34
2022/04/10 12:50:25;;;;;;;6.00;1.08;;;10.00;99.90;;;;;;5119079;27;20075;-34
2022/04/10 12:52:55;;;;;;;6.65;1.13;;;10.00;99.90;;;;;;5137078;27;20088;-33
2022/04/10 12:55:26;;;;;;;9.00;1.27;;;10.10;99.90;;;;;;5118912;27;20460;-35
2022/04/10 12:57:55;;;;;;;7.57;1.27;;;9.90;99.90;;;;;;5102421;27;20062;-34
2022/04/10 13:00:30;;;;;;;8.50;1.67;;;10.20;99.90;;;;;;5117826;27;20043;-34
2022/04/10 13:02:58;;;;;;;11.35;1.58;;;10.30;99.90;;;;;;5118761;27;20039;-34